createdAt,value
2024-04-22T00:00:37.138Z,5.70
2024-04-22T00:03:06.766Z,5.94
2024-04-22T00:05:33.659Z,5.82
2024-04-22T00:08:03.052Z,5.94
2024-04-22T00:10:32.558Z,6.09
2024-04-22T00:13:02.024Z,6.20
2024-04-22T00:15:28.891Z,5.86
2024-04-22T00:17:58.337Z,6.14
2024-04-22T00:20:25.334Z,6.24
2024-04-22T00:22:54.772Z,6.16
2024-04-22T00:25:21.644Z,5.94
2024-04-22T00:27:53.997Z,5.91
2024-04-22T00:30:23.679Z,6.01
2024-04-22T00:32:50.734Z,6.05
2024-04-22T00:35:20.168Z,5.86
2024-04-22T00:37:47.698Z,5.86
2024-04-22T00:40:17.278Z,6.04
2024-04-22T00:42:47.502Z,6.17
2024-04-22T00:45:19.520Z,6.01
2024-04-22T00:47:47.110Z,5.97
2024-04-22T00:50:17.936Z,6.04
2024-04-22T00:52:46.013Z,5.79
2024-04-22T00:55:16.346Z,5.88
2024-04-22T00:57:43.546Z,5.79
2024-04-22T01:00:13.711Z,5.71
2024-04-22T01:02:43.531Z,6.05
2024-04-22T01:05:13.129Z,5.81
2024-04-22T01:07:40.837Z,5.68
2024-04-22T01:10:10.971Z,5.48
2024-04-22T01:12:38.262Z,5.50
2024-04-22T01:15:08.673Z,5.85
2024-04-22T01:17:36.420Z,5.43
2024-04-22T01:20:10.028Z,5.68
2024-04-22T01:22:40.059Z,5.80
2024-04-22T01:25:11.659Z,5.80
2024-04-22T01:27:38.610Z,5.97
2024-04-22T01:30:10.033Z,5.65
2024-04-22T01:32:36.996Z,5.70
2024-04-22T01:35:07.861Z,5.64
2024-04-22T01:37:34.933Z,5.99
2024-04-22T01:40:07.676Z,5.76
2024-04-22T01:42:34.567Z,5.41
2024-04-22T01:45:04.055Z,5.67
2024-04-22T01:47:30.883Z,5.62
2024-04-22T01:50:00.341Z,5.59
2024-04-22T01:52:27.225Z,5.59
2024-04-22T01:54:56.715Z,5.85
2024-04-22T01:57:26.272Z,5.99
2024-04-22T01:59:55.676Z,5.96
2024-04-22T02:02:22.508Z,5.71
2024-04-22T02:04:51.925Z,5.70
2024-04-22T02:07:18.879Z,5.51
2024-04-22T02:09:48.462Z,5.40
2024-04-22T02:12:15.370Z,5.59
2024-04-22T02:14:47.438Z,5.49
2024-04-22T02:17:16.740Z,5.40
2024-04-22T02:19:46.262Z,5.70
2024-04-22T02:22:13.896Z,5.76
2024-04-22T02:24:43.362Z,5.74
2024-04-22T02:27:10.174Z,5.66
2024-04-22T02:29:39.621Z,5.74
2024-04-22T02:32:09.446Z,5.77
2024-04-22T02:34:38.971Z,5.70
2024-04-22T02:37:05.835Z,5.92
2024-04-22T02:39:35.327Z,5.89
2024-04-22T02:42:02.170Z,5.78
2024-04-22T02:44:31.599Z,5.65
2024-04-22T02:46:58.405Z,5.53
2024-04-22T02:49:32.484Z,5.67
2024-04-22T02:51:59.381Z,5.54
2024-04-22T02:54:29.703Z,5.48
2024-04-22T02:56:57.150Z,5.27
2024-04-22T02:59:26.724Z,5.31
2024-04-22T03:01:53.534Z,5.53
2024-04-22T03:04:23.127Z,5.48
2024-04-22T03:06:52.677Z,5.79
2024-04-22T03:09:22.401Z,5.93
2024-04-22T03:11:49.229Z,5.94
2024-04-22T03:14:18.668Z,5.95
2024-04-22T03:16:45.572Z,5.96
2024-04-22T03:19:15.149Z,5.82
2024-04-22T03:21:41.964Z,5.80
2024-04-22T03:24:14.332Z,5.90
2024-04-22T03:26:41.239Z,5.79
2024-04-22T03:29:10.956Z,5.70
2024-04-22T03:31:38.001Z,5.89
2024-04-22T03:34:08.019Z,5.85
2024-04-22T03:36:35.062Z,5.96
2024-04-22T03:39:04.782Z,6.00
2024-04-22T03:41:36.819Z,5.95
2024-04-22T03:44:06.333Z,5.87
2024-04-22T03:46:51.870Z,5.99
2024-04-22T03:49:42.606Z,5.87
2024-04-22T03:52:12.088Z,6.07
2024-04-22T03:54:41.652Z,6.23
2024-04-22T03:57:11.213Z,6.25
2024-04-22T03:59:41.050Z,6.28
2024-04-22T04:02:10.736Z,6.04
2024-04-22T04:04:37.841Z,5.56
2024-04-22T04:07:08.061Z,5.77
2024-04-22T04:09:37.019Z,5.94
2024-04-22T04:12:06.707Z,5.80
2024-04-22T04:14:36.306Z,5.87
2024-04-22T04:17:05.980Z,5.90
2024-04-22T04:19:33.186Z,5.98
2024-04-22T04:22:02.608Z,6.03
2024-04-22T04:24:29.415Z,6.33
2024-04-22T04:26:58.985Z,6.24
2024-04-22T04:29:25.839Z,6.20
2024-04-22T04:31:58.249Z,5.84
2024-04-22T04:34:25.212Z,5.58
2024-04-22T04:36:54.608Z,5.34
2024-04-22T04:39:21.461Z,5.63
2024-04-22T04:41:51.256Z,5.43
2024-04-22T04:44:18.210Z,5.27
2024-04-22T04:46:47.897Z,5.62
2024-04-22T04:49:17.462Z,5.59
2024-04-22T04:51:48.171Z,5.48
2024-04-22T04:54:14.993Z,5.56
2024-04-22T04:56:44.427Z,5.65
2024-04-22T04:59:11.278Z,5.29
2024-04-22T05:01:40.810Z,5.75
2024-04-22T05:04:07.776Z,5.89
2024-04-22T05:06:39.827Z,5.82
2024-04-22T05:09:06.732Z,5.73
2024-04-22T05:11:36.192Z,6.02
2024-04-22T05:14:03.026Z,5.80
2024-04-22T05:16:32.790Z,5.52
2024-04-22T05:18:59.649Z,5.87
2024-04-22T05:21:29.098Z,6.21
2024-04-22T05:24:08.689Z,6.46
2024-04-22T05:26:38.187Z,6.57
2024-04-22T05:29:05.110Z,6.42
2024-04-22T05:31:34.607Z,6.84
2024-04-22T05:34:20.045Z,6.61
2024-04-22T05:36:49.701Z,7.30
2024-04-22T05:39:22.199Z,7.44
2024-04-22T05:41:49.314Z,7.37
2024-04-22T05:44:18.929Z,7.51
2024-04-22T05:46:48.644Z,7.93
2024-04-22T05:49:18.232Z,8.01
2024-04-22T05:51:47.689Z,8.16
2024-04-22T05:54:17.151Z,8.36
2024-04-22T05:56:46.765Z,8.52
2024-04-22T05:59:19.051Z,8.67
2024-04-22T06:01:46.186Z,8.57
2024-04-22T06:04:15.790Z,8.93
2024-04-22T06:06:42.725Z,9.11
2024-04-22T06:09:13.392Z,9.65
2024-04-22T06:11:48.785Z,10.13
2024-04-22T06:14:28.790Z,10.25
2024-04-22T06:16:55.783Z,9.98
2024-04-22T06:19:25.347Z,10.08
2024-04-22T06:21:52.189Z,9.44
2024-04-22T06:24:21.614Z,9.83
2024-04-22T06:26:48.474Z,9.87
2024-04-22T06:29:17.952Z,9.93
2024-04-22T06:31:47.520Z,10.14
2024-04-22T06:34:17.117Z,10.65
2024-04-22T06:36:45.008Z,10.87
2024-04-22T06:39:14.711Z,11.35
2024-04-22T06:41:41.751Z,11.17
2024-04-22T06:44:11.839Z,10.95
2024-04-22T06:46:39.099Z,11.60
2024-04-22T06:49:11.673Z,11.56
2024-04-22T06:51:38.488Z,11.84
2024-04-22T06:54:08.467Z,12.11
2024-04-22T06:56:35.291Z,11.70
2024-04-22T06:59:05.005Z,12.20
2024-04-22T07:01:38.776Z,11.31
2024-04-22T07:04:12.933Z,12.26
2024-04-22T07:06:39.846Z,12.33
2024-04-22T07:09:11.531Z,11.89
2024-04-22T07:11:39.041Z,11.07
2024-04-22T07:14:13.806Z,11.97
2024-04-22T07:16:41.648Z,12.62
2024-04-22T07:19:16.163Z,12.98
2024-04-22T07:21:42.980Z,13.86
2024-04-22T07:24:12.674Z,14.19
2024-04-22T07:26:39.615Z,13.89
2024-04-22T07:29:10.004Z,14.01
2024-04-22T07:31:37.382Z,14.24
2024-04-22T07:34:07.773Z,15.11
2024-04-22T07:36:38.790Z,14.54
2024-04-22T07:39:11.331Z,14.67
2024-04-22T07:41:39.977Z,13.91
2024-04-22T07:44:10.182Z,14.05
2024-04-22T07:46:37.119Z,13.32
2024-04-22T07:49:06.657Z,12.19
2024-04-22T07:51:33.436Z,12.65
2024-04-22T07:54:06.627Z,12.12
2024-04-22T07:56:33.945Z,12.00
2024-04-22T07:59:05.366Z,11.83
2024-04-22T08:01:33.093Z,11.63
2024-04-22T08:04:06.112Z,12.08
2024-04-22T08:06:37.036Z,12.16
2024-04-22T08:09:09.488Z,11.63
2024-04-22T08:11:36.746Z,12.67
2024-04-22T08:14:07.039Z,12.21
2024-04-22T08:16:34.967Z,13.23
2024-04-22T08:19:04.604Z,13.32
2024-04-22T08:21:32.187Z,11.78
2024-04-22T08:24:02.221Z,13.07
2024-04-22T08:26:31.916Z,13.21
2024-04-22T08:29:01.384Z,14.15
2024-04-22T08:31:28.317Z,13.58
2024-04-22T08:33:58.090Z,14.14
2024-04-22T08:36:25.431Z,13.56
2024-04-22T08:38:54.907Z,13.09
2024-04-22T08:41:22.766Z,14.57
2024-04-22T08:43:54.965Z,15.12
2024-04-22T08:46:21.984Z,14.49
2024-04-22T08:48:51.807Z,14.92
2024-04-22T08:51:20.203Z,14.70
2024-04-22T08:53:51.220Z,14.86
2024-04-22T08:56:19.546Z,14.96
2024-04-22T08:58:50.991Z,14.92
2024-04-22T09:01:20.779Z,14.76
2024-04-22T09:03:50.768Z,15.23
2024-04-22T09:06:18.263Z,14.39
2024-04-22T09:08:49.536Z,14.93
2024-04-22T09:13:50.792Z,14.53
2024-04-22T09:16:20.884Z,12.93
2024-04-22T09:18:50.740Z,12.97
2024-04-22T09:21:18.080Z,13.44
2024-04-22T09:23:51.308Z,13.71
2024-04-22T09:26:19.225Z,13.71
2024-04-22T09:28:50.816Z,12.76
2024-04-22T09:31:22.381Z,13.70
2024-04-22T09:33:55.041Z,13.76
2024-04-22T09:36:23.656Z,14.21
2024-04-22T09:38:54.532Z,14.85
2024-04-22T09:41:21.706Z,15.16
2024-04-22T09:43:59.694Z,14.85
2024-04-22T09:46:34.408Z,16.44
2024-04-22T09:49:05.618Z,16.68
2024-04-22T09:51:35.667Z,15.95
2024-04-22T09:54:05.483Z,15.50
2024-04-22T09:56:37.129Z,15.16
2024-04-22T09:59:07.563Z,15.52
2024-04-22T10:01:37.746Z,14.80
2024-04-22T10:04:09.371Z,15.05
2024-04-22T10:06:37.474Z,14.79
2024-04-22T10:09:07.403Z,14.15
2024-04-22T10:11:35.374Z,14.57
2024-04-22T10:14:15.926Z,14.63
2024-04-22T10:16:57.157Z,14.93
2024-04-22T10:19:27.247Z,15.16
2024-04-22T10:22:00.104Z,15.14
2024-04-22T10:24:40.303Z,14.80
2024-04-22T10:27:11.876Z,15.01
2024-04-22T10:29:45.090Z,14.96
2024-04-22T10:32:14.890Z,15.19
2024-04-22T10:34:46.560Z,13.94
2024-04-22T10:37:14.302Z,13.65
2024-04-22T10:39:44.741Z,12.56
2024-04-22T10:42:12.017Z,11.29
2024-04-22T10:44:43.129Z,11.29
2024-04-22T10:47:12.826Z,11.25
2024-04-22T10:49:45.494Z,12.32
2024-04-22T10:52:12.617Z,11.29
2024-04-22T10:54:42.510Z,10.95
2024-04-22T10:57:09.754Z,11.10
2024-04-22T10:59:39.943Z,12.03
2024-04-22T11:02:08.360Z,12.65
2024-04-22T11:04:39.366Z,13.34
2024-04-22T11:07:08.839Z,13.69
2024-04-22T11:09:38.736Z,14.37
2024-04-22T11:12:06.338Z,14.86
2024-04-22T11:14:36.919Z,14.90
2024-04-22T11:17:04.049Z,15.65
2024-04-22T11:19:33.561Z,16.74
2024-04-22T11:22:01.983Z,15.63
2024-04-22T11:24:34.679Z,15.57
2024-04-22T11:27:02.438Z,14.14
2024-04-22T11:29:32.669Z,14.70
2024-04-22T11:31:59.822Z,13.82
2024-04-22T11:34:29.495Z,13.51
2024-04-22T11:36:57.587Z,13.46
2024-04-22T11:39:30.786Z,14.03
2024-04-22T11:42:01.294Z,13.96
2024-04-22T11:44:31.667Z,14.14
2024-04-22T11:46:58.847Z,13.40
2024-04-22T11:49:28.411Z,14.41
2024-04-22T11:51:55.302Z,15.09
2024-04-22T11:54:24.765Z,15.36
2024-04-22T11:56:53.007Z,15.47
2024-04-22T11:59:25.931Z,14.57
2024-04-22T12:01:53.114Z,14.84
2024-04-22T12:04:24.215Z,14.56
2024-04-22T12:06:52.176Z,14.68
2024-04-22T12:09:22.040Z,14.60
2024-04-22T12:11:49.551Z,15.00
2024-04-22T12:14:19.529Z,15.26
2024-04-22T12:16:50.870Z,15.73
2024-04-22T12:19:20.766Z,15.82
2024-04-22T12:21:47.775Z,16.14
2024-04-22T12:24:17.835Z,16.00
2024-04-22T12:26:45.432Z,15.24
2024-04-22T12:29:15.156Z,15.37
2024-04-22T12:31:42.529Z,15.81
2024-04-22T12:34:15.147Z,14.92
2024-04-22T12:36:42.182Z,14.79
2024-04-22T12:39:11.877Z,15.82
2024-04-22T12:41:39.011Z,16.11
2024-04-22T12:44:09.727Z,16.22
2024-04-22T12:46:58.694Z,16.37
2024-04-22T12:49:48.939Z,14.06
2024-04-22T12:52:21.203Z,13.78
2024-04-22T12:54:50.964Z,13.69
2024-04-22T12:57:21.430Z,13.55
2024-04-22T12:59:51.629Z,13.62
2024-04-22T13:02:22.382Z,12.38
2024-04-22T13:04:54.948Z,10.06
2024-04-22T13:07:24.668Z,8.95
2024-04-22T13:09:54.803Z,9.14
2024-04-22T13:12:24.306Z,8.58
2024-04-22T13:14:54.100Z,8.51
2024-04-22T13:17:21.203Z,8.59
2024-04-22T13:19:50.791Z,9.22
2024-04-22T13:22:22.997Z,8.35
2024-04-22T13:24:49.833Z,8.37
2024-04-22T13:27:19.312Z,8.70
2024-04-22T13:29:46.236Z,9.32
2024-04-22T13:32:19.683Z,9.88
2024-04-22T13:34:46.898Z,9.63
2024-04-22T13:37:17.302Z,10.55
2024-04-22T13:39:49.245Z,11.34
2024-04-22T13:42:19.030Z,11.28
2024-04-22T13:44:46.073Z,10.40
2024-04-22T13:47:16.143Z,11.56
2024-04-22T13:52:46.329Z,11.43
2024-04-22T13:55:13.142Z,12.04
2024-04-22T13:57:42.496Z,10.41
2024-04-22T14:00:13.084Z,10.08
2024-04-22T14:02:44.879Z,10.17
2024-04-22T14:05:11.774Z,10.67
2024-04-22T14:07:41.332Z,10.98
2024-04-22T14:10:10.822Z,10.53
2024-04-22T14:12:40.323Z,10.06
2024-04-22T14:15:08.336Z,10.16
2024-04-22T14:17:40.257Z,10.57
2024-04-22T14:20:08.256Z,10.79
2024-04-22T14:22:37.815Z,10.03
2024-04-22T14:25:07.001Z,11.09
2024-04-22T14:27:39.153Z,10.63
2024-04-22T14:30:07.257Z,10.98
2024-04-22T14:32:36.741Z,10.61
2024-04-22T14:35:03.956Z,10.15
2024-04-22T14:37:34.350Z,10.92
2024-04-22T14:40:02.040Z,10.28
2024-04-22T14:42:34.086Z,9.90
2024-04-22T14:45:03.765Z,10.91
2024-04-22T14:47:33.167Z,11.28
2024-04-22T14:49:59.956Z,11.08
2024-04-22T14:52:29.654Z,10.55
2024-04-22T14:54:56.480Z,11.48
2024-04-22T14:57:29.850Z,10.49
2024-04-22T14:59:56.643Z,10.28
2024-04-22T15:02:28.774Z,10.09
2024-04-22T15:04:55.571Z,10.23
2024-04-22T15:07:25.075Z,11.18
2024-04-22T15:09:52.195Z,11.12
2024-04-22T15:12:21.691Z,11.17
2024-04-22T15:14:48.475Z,10.76
2024-04-22T15:17:17.848Z,10.54
2024-04-22T15:19:47.254Z,9.37
2024-04-22T15:22:16.638Z,9.58
2024-04-22T15:24:43.397Z,9.39
2024-04-22T15:27:13.292Z,9.48
2024-04-22T15:29:40.356Z,9.49
2024-04-22T15:32:12.329Z,9.61
2024-04-22T15:34:41.593Z,9.28
2024-04-22T15:37:15.217Z,9.39
2024-04-22T15:39:44.503Z,10.33
2024-04-22T15:42:14.054Z,9.97
2024-04-22T15:44:40.899Z,9.78
2024-04-22T15:47:10.447Z,9.24
2024-04-22T15:49:38.463Z,10.12
2024-04-22T15:52:08.534Z,9.90
2024-04-22T15:54:37.922Z,10.19
2024-04-22T15:57:07.931Z,10.31
2024-04-22T15:59:34.695Z,10.43
2024-04-22T16:02:05.495Z,10.54
2024-04-22T16:04:32.299Z,11.75
2024-04-22T16:07:01.729Z,11.57
2024-04-22T16:09:31.120Z,11.13
2024-04-22T16:12:03.592Z,11.36
2024-04-22T16:14:30.676Z,11.07
2024-04-22T16:17:00.059Z,11.32
2024-04-22T16:19:26.893Z,11.14
2024-04-22T16:21:56.272Z,11.80
2024-04-22T16:24:23.120Z,11.53
2024-04-22T16:26:53.452Z,11.29
2024-04-22T16:29:22.962Z,10.94
2024-04-22T16:31:52.396Z,11.35
2024-04-22T16:34:19.189Z,11.21
2024-04-22T16:36:48.587Z,10.98
2024-04-22T16:39:15.350Z,10.98
2024-04-22T16:41:44.738Z,10.74
2024-04-22T16:44:11.556Z,10.61
2024-04-22T16:46:43.694Z,10.42
2024-04-22T16:49:10.456Z,10.86
2024-04-22T16:51:40.949Z,10.11
2024-04-22T16:54:07.697Z,10.07
2024-04-22T16:56:37.115Z,9.93
2024-04-22T16:59:03.870Z,10.01
2024-04-22T17:01:33.343Z,9.73
2024-04-22T17:04:02.992Z,9.26
2024-04-22T17:06:32.394Z,9.24
2024-04-22T17:08:59.196Z,9.27
2024-04-22T17:11:28.604Z,9.05
2024-04-22T17:13:55.518Z,8.74
2024-04-22T17:16:24.991Z,8.90
2024-04-22T17:18:52.882Z,8.50
2024-04-22T17:21:24.970Z,8.44
2024-04-22T17:23:51.764Z,8.61
2024-04-22T17:26:23.256Z,8.57
2024-04-22T17:28:50.145Z,8.47
2024-04-22T17:31:19.674Z,8.75
2024-04-22T17:33:46.494Z,9.06
2024-04-22T17:36:15.942Z,9.07
2024-04-22T17:38:45.961Z,9.32
2024-04-22T17:41:15.349Z,9.21
2024-04-22T17:43:42.488Z,9.36
2024-04-22T17:46:12.043Z,9.57
2024-04-22T17:48:39.032Z,9.31
2024-04-22T17:51:08.647Z,9.19
2024-04-22T17:53:47.166Z,9.03
2024-04-22T17:56:19.214Z,8.99
2024-04-22T17:58:47.125Z,9.24
2024-04-22T18:01:20.788Z,8.83
2024-04-22T18:03:47.695Z,9.06
2024-04-22T18:06:20.346Z,9.20
2024-04-22T18:08:51.126Z,9.33
2024-04-22T18:11:25.593Z,8.53
2024-04-22T18:13:52.552Z,8.92
2024-04-22T18:16:22.174Z,8.52
2024-04-22T18:18:49.326Z,8.53
2024-04-22T18:21:26.232Z,8.63
2024-04-22T18:23:58.949Z,8.39
2024-04-22T18:26:34.014Z,8.56
2024-04-22T18:29:00.961Z,8.24
2024-04-22T18:31:31.577Z,8.35
2024-04-22T18:33:58.356Z,8.44
2024-04-22T18:36:27.719Z,8.04
2024-04-22T18:38:54.531Z,7.93
2024-04-22T18:41:24.386Z,7.87
2024-04-22T18:43:53.893Z,7.93
2024-04-22T18:46:23.783Z,7.54
2024-04-22T18:48:50.607Z,7.36
2024-04-22T18:51:24.735Z,7.74
2024-04-22T18:53:52.072Z,7.70
2024-04-22T18:56:22.708Z,7.60
2024-04-22T18:58:49.572Z,7.84
2024-04-22T19:01:23.519Z,7.34
2024-04-22T19:03:50.395Z,7.76
2024-04-22T19:06:19.807Z,7.84
2024-04-22T19:08:46.605Z,7.82
2024-04-22T19:11:16.003Z,7.99
2024-04-22T19:13:44.683Z,7.99
2024-04-22T19:16:14.202Z,7.69
2024-04-22T19:18:43.611Z,7.60
2024-04-22T19:21:12.975Z,7.60
2024-04-22T19:23:40.014Z,7.98
2024-04-22T19:26:11.989Z,7.76
2024-04-22T19:28:38.871Z,7.51
2024-04-22T19:31:09.136Z,7.81
2024-04-22T19:33:36.133Z,7.69
2024-04-22T19:36:08.771Z,7.51
2024-04-22T19:38:35.550Z,7.45
2024-04-22T19:41:04.953Z,7.54
2024-04-22T19:43:31.865Z,7.68
2024-04-22T19:46:01.287Z,7.62
2024-04-22T19:48:28.260Z,7.28
2024-04-22T19:50:57.616Z,7.38
2024-04-22T19:53:27.148Z,7.46
2024-04-22T19:55:57.014Z,7.30
2024-04-22T19:58:24.025Z,7.25
2024-04-22T20:00:53.481Z,7.23
2024-04-22T20:03:20.368Z,7.28
2024-04-22T20:05:49.835Z,7.54
2024-04-22T20:08:16.614Z,7.47
2024-04-22T20:10:48.808Z,7.55
2024-04-22T20:13:16.719Z,7.62
2024-04-22T20:16:04.468Z,7.66
2024-04-22T20:18:42.207Z,7.63
2024-04-22T20:21:12.028Z,7.57
2024-04-22T20:23:38.842Z,7.46
2024-04-22T20:26:10.809Z,7.65
2024-04-22T20:28:37.660Z,7.76
2024-04-22T20:31:07.451Z,7.46
2024-04-22T20:33:34.650Z,7.44
2024-04-22T20:36:04.435Z,7.57
2024-04-22T20:38:31.214Z,7.32
2024-04-22T20:41:00.985Z,7.06
2024-04-22T20:43:33.003Z,7.07
2024-04-22T20:46:02.489Z,7.24
2024-04-22T20:48:32.838Z,6.99
2024-04-22T20:51:02.853Z,7.35
2024-04-22T20:53:30.140Z,7.12
2024-04-22T20:56:02.787Z,7.11
2024-04-22T20:58:32.748Z,7.35
2024-04-22T21:01:03.417Z,7.25
2024-04-22T21:03:30.463Z,7.11
2024-04-22T21:06:01.320Z,7.21
2024-04-22T21:08:28.759Z,6.98
2024-04-22T21:10:58.891Z,6.64
2024-04-22T21:13:26.092Z,7.00
2024-04-22T21:15:59.295Z,6.97
2024-04-22T21:18:26.084Z,6.93
2024-04-22T21:20:55.469Z,6.96
2024-04-22T21:23:22.231Z,6.98
2024-04-22T21:25:51.847Z,7.29
2024-04-22T21:28:18.972Z,7.24
2024-04-22T21:30:48.399Z,7.44
2024-04-22T21:33:34.110Z,7.28
2024-04-22T21:36:07.652Z,7.39
2024-04-22T21:38:34.408Z,7.59
2024-04-22T21:41:03.832Z,7.48
2024-04-22T21:43:30.656Z,7.30
2024-04-22T21:46:00.228Z,7.07
2024-04-22T21:48:29.747Z,7.35
2024-04-22T21:50:59.193Z,7.30
2024-04-22T21:53:25.984Z,7.14
2024-04-22T21:56:08.430Z,7.17
2024-04-22T21:59:12.884Z,6.77
2024-04-22T22:02:19.641Z,6.73
2024-04-22T22:05:23.928Z,7.14
2024-04-22T22:07:53.136Z,6.89
2024-04-22T22:10:22.897Z,7.07
2024-04-22T22:12:52.275Z,7.10
2024-04-22T22:15:19.114Z,7.22
2024-04-22T22:17:50.429Z,7.34
2024-04-22T22:20:18.783Z,6.95
2024-04-22T22:22:48.183Z,6.97
2024-04-22T22:25:14.930Z,6.79
2024-04-22T22:27:50.194Z,6.85
2024-04-22T22:30:18.574Z,6.72
2024-04-22T22:32:48.329Z,6.87
2024-04-22T22:35:15.134Z,7.01
2024-04-22T22:37:44.608Z,6.92
2024-04-22T22:40:11.468Z,6.80
2024-04-22T22:42:40.845Z,6.90
2024-04-22T22:45:10.268Z,6.98
2024-04-22T22:47:40.934Z,6.77
2024-04-22T22:50:08.046Z,6.71
2024-04-22T22:52:37.549Z,6.67
2024-04-22T22:55:04.866Z,6.55
2024-04-22T22:57:34.200Z,6.62
2024-04-22T23:00:00.931Z,6.64
2024-04-22T23:02:32.978Z,6.27
2024-04-22T23:04:59.858Z,6.22
2024-04-22T23:07:29.302Z,6.37
2024-04-22T23:09:56.071Z,6.07
2024-04-22T23:12:25.443Z,6.21
2024-04-22T23:14:52.206Z,6.12
2024-04-22T23:17:21.591Z,5.96
2024-04-22T23:19:51.103Z,5.79
2024-04-22T23:22:21.388Z,5.91
2024-04-22T23:24:48.135Z,5.75
2024-04-22T23:27:20.556Z,5.90
2024-04-22T23:29:47.625Z,5.83
2024-04-22T23:32:16.961Z,5.62
2024-04-22T23:34:43.858Z,5.76
2024-04-22T23:37:15.891Z,5.54
2024-04-22T23:39:42.697Z,5.87
2024-04-22T23:42:12.061Z,5.88
2024-04-22T23:44:38.913Z,5.82
2024-04-22T23:47:08.388Z,5.53
2024-04-22T23:49:35.206Z,5.59
2024-04-22T23:52:05.795Z,5.75
2024-04-22T23:54:35.165Z,5.68
2024-04-22T23:57:05.533Z,5.90
2024-04-22T23:59:32.411Z,5.65
